Terminal Aerodrome Forecast
Issued by NWS Quad Cities IA IL

Home | Current Version | Previous Version | Text Only | Print | Product List | Glossary On
Versions: 1 2 3 4 5 6 7 8 9 10 11 12 13 14 15 16 17 18 19 20
000
FTUS43 KDVN 250200 AAA
TAFMLI
TAF AMD
KMLI 250242Z 2503/2524 29012KT P6SM SKC
     FM250500 32007KT P6SM SKC
     FM251000 05005KT P6SM BKN080
     FM252200 07007KT 3SM -SN BR OVC025=

USA.gov is the U.S. government's official web portal to all federal, state and local government web resources and services.